Time;durP1;ratioP1;P1;durP2;ratioP2;P2;SDS_P1;SDS_P2;PMS_P1;PMS_P2;Temp;Humidity;BMP_temperature;BMP_pressure;BME280_temperature;BME280_humidity;BME280_pressure;Samples;Min_cycle;Max_cycle;Signal;HPM_P1;HPM_P2
2023/08/28 00:00:59;;;;;;;2.10;0.60;;;;;;;16.71;95.66;100468.31;5094868;28;20936;-71
2023/08/28 00:03:25;;;;;;;5.00;0.90;;;;;;;16.63;96.21;100458.28;5094829;28;20511;-71
2023/08/28 00:05:52;;;;;;;2.10;0.70;;;;;;;16.58;96.75;100462.06;5094923;28;20483;-71
2023/08/28 00:08:19;;;;;;;2.53;0.80;;;;;;;16.56;97.47;100471.75;5095056;28;20523;-71
2023/08/28 00:10:46;;;;;;;2.40;0.70;;;;;;;16.51;97.88;100471.97;5094877;28;20521;-71
2023/08/28 00:13:12;;;;;;;2.20;0.80;;;;;;;16.46;98.26;100467.53;5094841;28;20531;-71
2023/08/28 00:15:39;;;;;;;2.30;0.73;;;;;;;16.40;97.85;100466.97;5094369;28;20835;-71
2023/08/28 00:18:07;;;;;;;2.30;0.70;;;;;;;16.30;98.33;100472.91;5094865;28;20421;-71
2023/08/28 00:20:34;;;;;;;2.30;0.70;;;;;;;16.28;98.38;100474.38;5093706;28;20503;-71
2023/08/28 00:23:00;;;;;;;3.43;1.37;;;;;;;16.27;99.35;100475.53;5094359;28;20782;-71
2023/08/28 00:25:27;;;;;;;2.10;0.60;;;;;;;16.20;99.21;100478.03;5094623;28;20531;-71
2023/08/28 00:27:53;;;;;;;2.30;0.70;;;;;;;16.15;98.83;100481.78;5094214;28;21012;-71
2023/08/28 00:30:20;;;;;;;2.10;0.60;;;;;;;16.12;99.30;100477.81;5094279;28;20920;-71
2023/08/28 00:32:47;;;;;;;2.40;0.67;;;;;;;16.11;98.64;100478.13;5094280;28;20440;-72
2023/08/28 00:35:16;;;;;;;2.23;0.50;;;;;;;16.05;98.93;100484.97;5094469;28;20464;-70
2023/08/28 00:37:42;;;;;;;2.73;0.73;;;;;;;15.97;100.00;100488.59;5095434;28;20540;-71
2023/08/28 00:40:13;;;;;;;2.17;0.50;;;;;;;15.98;99.88;100501.13;5094305;28;21058;-70
2023/08/28 00:42:39;;;;;;;2.00;0.50;;;;;;;15.89;99.18;100502.03;5094077;28;20429;-70
2023/08/28 00:45:07;;;;;;;2.80;0.80;;;;;;;15.86;99.10;100494.50;5093928;28;21047;-70
2023/08/28 00:47:35;;;;;;;2.33;0.63;;;;;;;15.81;98.64;100497.47;5094181;28;20438;-70
2023/08/28 00:50:02;;;;;;;2.40;0.80;;;;;;;15.77;99.28;100498.47;5094187;28;20435;-70
2023/08/28 00:52:31;;;;;;;2.50;0.83;;;;;;;15.67;99.43;100494.25;5094172;28;20437;-70
2023/08/28 00:54:57;;;;;;;2.50;0.73;;;;;;;15.61;99.70;100496.34;5094019;28;20461;-70
2023/08/28 00:57:24;;;;;;;2.07;0.57;;;;;;;15.57;99.95;100494.63;5093734;28;20528;-70
2023/08/28 00:59:52;;;;;;;4.00;1.00;;;;;;;15.55;99.59;100507.81;5094002;28;20487;-70
2023/08/28 01:02:18;;;;;;;2.47;0.90;;;;;;;15.51;99.80;100510.44;5094071;28;20440;-70
2023/08/28 01:04:45;;;;;;;2.50;0.73;;;;;;;15.47;100.00;100512.22;5093569;28;20437;-70
2023/08/28 01:07:21;;;;;;;2.33;0.80;;;;;;;15.43;100.00;100510.50;5093949;28;20436;-70
2023/08/28 01:09:59;;;;;;;2.40;1.10;;;;;;;15.34;100.00;100513.31;5094021;28;20424;-70
2023/08/28 01:12:35;;;;;;;2.00;0.50;;;;;;;15.31;100.00;100509.31;5093908;28;20428;-70
2023/08/28 01:15:07;;;;;;;2.30;0.60;;;;;;;15.29;100.00;100519.78;5093560;28;20426;-70
2023/08/28 01:17:34;;;;;;;2.00;0.50;;;;;;;15.27;100.00;100518.50;5093466;28;20520;-70
2023/08/28 01:20:04;;;;;;;2.00;0.60;;;;;;;15.21;100.00;100514.38;5093667;28;20484;-70
2023/08/28 01:22:33;;;;;;;2.40;0.70;;;;;;;15.19;100.00;100525.66;5093793;28;20852;-70
2023/08/28 01:25:05;;;;;;;2.40;0.80;;;;;;;15.17;100.00;100514.25;5093684;28;20801;-70
2023/08/28 01:27:33;;;;;;;2.53;0.70;;;;;;;15.14;100.00;100523.13;5093750;28;20413;-70
2023/08/28 01:30:08;;;;;;;2.20;0.60;;;;;;;15.16;100.00;100517.31;5093717;28;20523;-70
2023/08/28 01:32:34;;;;;;;2.40;0.70;;;;;;;15.11;100.00;100518.31;5093287;28;20440;-70
2023/08/28 01:35:03;;;;;;;2.37;0.77;;;;;;;15.14;100.00;100520.41;5093607;28;20524;-70
2023/08/28 01:37:40;;;;;;;2.27;0.60;;;;;;;15.11;100.00;100523.78;5093706;28;20514;-70
2023/08/28 01:40:10;;;;;;;2.30;0.70;;;;;;;15.08;100.00;100525.22;5093518;28;20835;-70
2023/08/28 01:42:37;;;;;;;3.80;0.60;;;;;;;15.10;100.00;100519.47;5093284;28;20413;-70
2023/08/28 01:45:05;;;;;;;2.10;0.60;;;;;;;15.05;100.00;100522.38;5093483;28;20543;-70
2023/08/28 01:47:31;;;;;;;2.40;0.50;;;;;;;15.02;100.00;100525.78;5093521;28;20520;-70
2023/08/28 01:49:59;;;;;;;3.80;0.80;;;;;;;15.01;100.00;100518.72;5093478;28;20436;-70
2023/08/28 01:52:25;;;;;;;1.97;0.43;;;;;;;14.96;100.00;100527.88;5093554;28;20509;-70
2023/08/28 01:54:52;;;;;;;2.00;0.50;;;;;;;14.92;100.00;100531.59;5093108;28;20520;-70
2023/08/28 01:57:20;;;;;;;2.03;0.50;;;;;;;14.93;100.00;100527.78;5093414;28;20848;-70
2023/08/28 01:59:47;;;;;;;2.17;0.57;;;;;;;14.88;100.00;100526.03;5093725;28;20492;-70
2023/08/28 02:02:13;;;;;;;2.30;0.70;;;;;;;14.86;100.00;100517.38;5093304;28;20923;-70
2023/08/28 02:04:40;;;;;;;2.23;0.73;;;;;;;14.80;100.00;100515.97;5093477;28;20839;-70
2023/08/28 02:07:06;;;;;;;2.20;0.60;;;;;;;14.75;100.00;100514.25;5093226;28;20452;-70
2023/08/28 02:09:33;;;;;;;2.23;0.53;;;;;;;14.75;100.00;100514.25;5093386;28;20456;-70
2023/08/28 02:12:00;;;;;;;2.47;0.60;;;;;;;14.66;100.00;100507.25;5093258;28;20437;-70
2023/08/28 02:14:28;;;;;;;2.40;0.77;;;;;;;14.65;100.00;100511.88;5093363;28;20529;-70
2023/08/28 02:16:54;;;;;;;2.50;0.67;;;;;;;14.61;100.00;100502.78;5148046;22;20499;-68
2023/08/28 02:19:21;;;;;;;2.33;0.70;;;;;;;14.61;100.00;100509.03;5113630;28;20570;-68
2023/08/28 02:21:47;;;;;;;2.20;0.70;;;;;;;14.59;100.00;100499.59;5113586;28;20435;-68
2023/08/28 02:24:14;;;;;;;2.47;0.80;;;;;;;14.52;100.00;100497.41;5113402;28;20446;-67
2023/08/28 02:26:41;;;;;;;2.83;0.80;;;;;;;14.49;100.00;100506.22;5113341;28;20463;-67
2023/08/28 02:29:07;;;;;;;2.40;0.80;;;;;;;14.42;100.00;100511.34;5113334;28;21008;-67
2023/08/28 02:31:35;;;;;;;3.40;1.03;;;;;;;14.42;100.00;100510.56;5113656;28;20809;-67
2023/08/28 02:34:02;;;;;;;2.57;0.70;;;;;;;14.44;100.00;100516.50;5113554;28;20435;-67
2023/08/28 02:36:29;;;;;;;2.07;0.57;;;;;;;14.43;100.00;100518.38;5113407;28;21016;-67
2023/08/28 02:38:55;;;;;;;2.00;0.43;;;;;;;14.42;100.00;100516.00;5114071;28;20440;-67
2023/08/28 02:41:22;;;;;;;2.20;0.60;;;;;;;14.38;100.00;100519.38;5113478;28;20936;-67
2023/08/28 02:43:48;;;;;;;2.23;0.70;;;;;;;14.39;100.00;100515.53;5113859;28;20492;-66
2023/08/28 02:46:15;;;;;;;2.97;0.90;;;;;;;14.37;100.00;100522.44;5117122;28;20546;-67
2023/08/28 02:48:43;;;;;;;2.10;0.60;;;;;;;14.38;100.00;100524.81;5117113;28;20872;-67
2023/08/28 02:51:13;;;;;;;2.23;0.70;;;;;;;14.32;100.00;100534.31;5117155;28;20515;-67
2023/08/28 02:53:39;;;;;;;2.30;0.90;;;;;;;14.34;100.00;100536.72;5117001;28;20534;-67
2023/08/28 02:56:34;;;;;;;2.27;0.70;;;;;;;14.27;100.00;100539.16;5116696;28;20543;-70
2023/08/28 02:59:01;;;;;;;2.73;0.90;;;;;;;14.26;100.00;100532.91;5103313;28;20484;-67
2023/08/28 03:01:28;;;;;;;2.20;0.60;;;;;;;14.19;100.00;100556.34;5117053;28;20471;-67
2023/08/28 03:03:56;;;;;;;2.50;0.70;;;;;;;14.17;100.00;100547.69;5117270;28;20454;-67
2023/08/28 03:06:22;;;;;;;2.53;0.70;;;;;;;14.17;100.00;100548.50;5116777;28;20487;-67
2023/08/28 03:08:49;;;;;;;2.70;1.10;;;;;;;14.21;100.00;100554.91;5116835;28;20526;-66
2023/08/28 03:11:16;;;;;;;2.20;0.57;;;;;;;14.18;100.00;100566.44;5116548;28;20807;-67
2023/08/28 03:13:43;;;;;;;2.43;0.83;;;;;;;14.16;100.00;100557.78;5116879;28;20439;-67
2023/08/28 03:16:09;;;;;;;2.40;0.80;;;;;;;14.21;100.00;100571.25;5116272;28;20547;-68
2023/08/28 03:18:36;;;;;;;3.27;1.30;;;;;;;14.16;100.00;100578.78;5116724;28;20527;-67
2023/08/28 03:21:05;;;;;;;2.60;0.90;;;;;;;14.16;100.00;100574.13;5116613;28;20571;-66
2023/08/28 03:23:31;;;;;;;2.30;0.80;;;;;;;14.18;100.00;100574.59;5116652;28;20538;-68
2023/08/28 03:25:58;;;;;;;2.30;0.60;;;;;;;14.12;100.00;100571.25;5116382;28;20491;-67
2023/08/28 03:28:25;;;;;;;2.10;0.60;;;;;;;14.10;100.00;100570.78;5116805;28;20443;-67
2023/08/28 03:30:52;;;;;;;2.07;0.57;;;;;;;14.18;100.00;100574.59;5116604;28;20432;-67
2023/08/28 03:33:18;;;;;;;3.40;0.80;;;;;;;14.18;100.00;100579.25;5116328;28;20467;-67
2023/08/28 03:35:45;;;;;;;2.33;0.60;;;;;;;14.14;100.00;100587.28;5116611;28;20866;-66
2023/08/28 03:38:13;;;;;;;2.17;0.77;;;;;;;14.17;100.00;100578.47;5115852;28;20475;-66
2023/08/28 03:40:40;;;;;;;2.60;0.90;;;;;;;14.18;100.00;100582.78;5116426;28;20487;-66
2023/08/28 03:43:07;;;;;;;2.27;0.67;;;;;;;14.15;100.00;100591.59;5116195;28;20436;-66
2023/08/28 03:45:33;;;;;;;2.20;0.60;;;;;;;14.10;100.00;100594.50;5115990;28;20546;-66
2023/08/28 03:48:00;;;;;;;2.10;0.60;;;;;;;14.11;100.00;100593.38;5116026;28;20444;-66
2023/08/28 03:50:28;;;;;;;2.30;0.80;;;;;;;14.06;100.00;100594.34;5115962;28;20842;-66
2023/08/28 03:52:56;;;;;;;3.10;1.17;;;;;;;14.02;100.00;100598.03;5115680;28;20959;-67
2023/08/28 03:55:23;;;;;;;2.50;0.67;;;;;;;14.08;100.00;100592.09;5115691;28;20456;-67
2023/08/28 03:57:50;;;;;;;2.67;0.70;;;;;;;14.09;100.00;100587.44;5115585;28;20439;-67
2023/08/28 04:00:18;;;;;;;2.10;0.70;;;;;;;14.08;100.00;100588.59;5115567;28;20579;-67
2023/08/28 04:02:45;;;;;;;3.30;0.97;;;;;;;14.12;100.00;100578.59;5115685;28;20501;-67
2023/08/28 04:05:12;;;;;;;2.60;0.90;;;;;;;14.13;100.00;100586.47;5115452;28;20542;-67
2023/08/28 04:07:39;;;;;;;3.60;0.90;;;;;;;14.14;100.00;100581.81;5116225;28;20519;-67
2023/08/28 04:10:07;;;;;;;2.20;0.80;;;;;;;14.14;100.00;100579.91;5115650;28;20497;-67
2023/08/28 04:12:35;;;;;;;2.07;0.67;;;;;;;14.11;100.00;100583.25;5115409;28;20531;-67
2023/08/28 04:15:01;;;;;;;2.27;0.60;;;;;;;14.09;100.00;100584.72;5115529;28;20552;-67
2023/08/28 04:17:28;;;;;;;2.87;0.80;;;;;;;14.00;100.00;100579.31;5115219;28;20455;-67
2023/08/28 04:19:56;;;;;;;3.10;1.10;;;;;;;13.97;100.00;100577.22;5115293;28;20483;-67
2023/08/28 04:22:23;;;;;;;2.13;0.67;;;;;;;14.01;100.00;100583.63;5115126;28;20957;-74
2023/08/28 04:24:51;;;;;;;2.30;0.70;;;;;;;14.02;100.00;100574.31;5115387;28;20496;-69
2023/08/28 04:27:18;;;;;;;2.00;0.60;;;;;;;14.01;100.00;100561.03;5115089;28;20522;-67
2023/08/28 04:29:46;;;;;;;2.13;0.60;;;;;;;14.01;100.00;100555.59;5115110;28;20466;-67
2023/08/28 04:32:13;;;;;;;2.70;0.90;;;;;;;14.02;100.00;100549.81;5115205;28;20518;-67
2023/08/28 04:34:39;;;;;;;4.13;1.30;;;;;;;14.05;100.00;100545.66;5115072;28;20867;-67
2023/08/28 04:37:06;;;;;;;2.90;1.10;;;;;;;14.07;100.00;100555.06;5114761;28;21056;-67
2023/08/28 04:39:33;;;;;;;2.77;0.80;;;;;;;14.08;100.00;100542.28;5114726;28;20483;-68
2023/08/28 04:41:59;;;;;;;2.20;0.50;;;;;;;14.14;100.00;100543.69;5114969;28;20526;-68
2023/08/28 04:44:26;;;;;;;3.13;1.10;;;;;;;14.13;100.00;100548.34;5114982;28;20508;-68
2023/08/28 04:46:55;;;;;;;2.53;0.97;;;;;;;14.17;100.00;100544.97;5114761;28;20543;-67
2023/08/28 04:49:21;;;;;;;3.27;0.90;;;;;;;14.16;100.00;100530.53;5114644;28;20513;-67
2023/08/28 04:51:48;;;;;;;2.20;0.63;;;;;;;14.17;100.00;100532.16;5114768;28;20459;-67
2023/08/28 04:54:15;;;;;;;3.50;1.20;;;;;;;14.16;100.00;100541.44;5114735;28;20447;-67
2023/08/28 04:56:41;;;;;;;2.97;0.87;;;;;;;14.11;100.00;100549.78;5114492;28;20542;-67
2023/08/28 04:59:08;;;;;;;2.33;0.67;;;;;;;14.15;100.00;100556.19;5114538;28;20974;-67
2023/08/28 05:01:34;;;;;;;2.50;1.03;;;;;;;14.11;100.00;100547.06;5114351;28;20475;-67
2023/08/28 05:04:03;;;;;;;2.50;0.93;;;;;;;14.10;100.00;100542.75;5114626;28;20470;-67
2023/08/28 05:06:29;;;;;;;3.00;1.10;;;;;;;14.19;100.00;100548.94;5114123;28;20539;-66
2023/08/28 05:08:56;;;;;;;3.83;0.97;;;;;;;14.27;100.00;100547.34;5114711;28;20517;-67
2023/08/28 05:11:23;;;;;;;2.67;0.83;;;;;;;14.31;100.00;100554.53;5114247;28;20859;-67
2023/08/28 05:13:50;;;;;;;2.70;1.10;;;;;;;14.38;100.00;100548.56;5114609;28;20439;-67
2023/08/28 05:16:16;;;;;;;2.90;1.17;;;;;;;14.35;100.00;100549.22;5114002;28;20852;-67
2023/08/28 05:18:43;;;;;;;2.60;1.00;;;;;;;14.31;100.00;100540.09;5114524;28;20435;-67
2023/08/28 05:21:11;;;;;;;2.30;0.80;;;;;;;14.38;100.00;100546.63;5114092;28;20901;-67
2023/08/28 05:23:38;;;;;;;2.33;0.87;;;;;;;14.51;100.00;100553.00;5114412;28;20523;-67
2023/08/28 05:26:04;;;;;;;4.37;1.27;;;;;;;14.57;100.00;100550.91;5113914;28;21037;-67
2023/08/28 05:28:35;;;;;;;3.07;1.20;;;;;;;14.57;100.00;100557.16;5114222;28;20530;-67
2023/08/28 05:31:01;;;;;;;3.10;0.80;;;;;;;14.56;100.00;100546.56;5114318;28;20420;-67
2023/08/28 05:33:28;;;;;;;2.70;1.10;;;;;;;14.60;100.00;100540.13;5113907;28;20471;-67
2023/08/28 05:35:54;;;;;;;5.00;1.47;;;;;;;14.65;100.00;100550.06;5114179;28;20542;-67
2023/08/28 05:38:22;;;;;;;3.27;1.97;;;;;;;14.70;100.00;100552.63;5113977;28;20527;-67
2023/08/28 05:40:49;;;;;;;2.40;0.80;;;;;;;14.79;100.00;100542.47;5113995;28;20892;-67
2023/08/28 05:43:15;;;;;;;2.50;1.00;;;;;;;14.88;100.00;100551.38;5114027;28;20526;-67
2023/08/28 05:45:42;;;;;;;2.53;1.10;;;;;;;14.93;100.00;100546.88;5113752;28;20456;-67
2023/08/28 05:48:09;;;;;;;2.30;0.80;;;;;;;14.92;100.00;100546.06;5114018;28;20489;-67
2023/08/28 05:50:36;;;;;;;3.80;1.60;;;;;;;14.93;100.00;100541.41;5114035;28;20882;-67
2023/08/28 05:53:04;;;;;;;3.93;0.90;;;;;;;14.99;100.00;100556.44;5114084;28;20475;-67
2023/08/28 05:55:32;;;;;;;2.30;0.70;;;;;;;15.03;100.00;100560.09;5114198;28;20455;-67
2023/08/28 05:57:59;;;;;;;2.73;0.80;;;;;;;15.05;100.00;100566.00;5113595;28;20915;-67
2023/08/28 06:00:27;;;;;;;2.40;1.10;;;;;;;15.01;100.00;100560.44;5113735;28;20483;-67
2023/08/28 06:02:53;;;;;;;2.70;0.93;;;;;;;15.00;99.75;100566.22;5113789;28;20485;-67
2023/08/28 06:05:20;;;;;;;2.40;0.97;;;;;;;15.04;99.99;100576.13;5114107;28;20491;-67
2023/08/28 06:07:47;;;;;;;2.20;0.80;;;;;;;15.09;99.24;100583.31;5113752;28;20534;-67
2023/08/28 06:10:17;;;;;;;2.20;0.90;;;;;;;15.11;99.18;100592.00;5113981;28;20484;-67
2023/08/28 06:12:46;;;;;;;2.60;0.80;;;;;;;15.10;98.93;100588.47;5114338;28;20519;-67
2023/08/28 06:15:14;;;;;;;3.20;0.97;;;;;;;15.11;98.44;100595.50;5113750;28;20520;-70
2023/08/28 06:17:41;;;;;;;3.87;1.27;;;;;;;15.09;97.37;100591.50;5113727;28;20538;-68
2023/08/28 06:20:10;;;;;;;2.10;0.70;;;;;;;15.09;98.06;100591.50;5117894;28;20432;-68
2023/08/28 06:22:37;;;;;;;2.63;0.87;;;;;;;15.05;98.17;100582.38;5117846;28;20435;-67
2023/08/28 06:25:04;;;;;;;3.50;1.20;;;;;;;15.08;97.56;100584.47;5117229;28;20442;-67
2023/08/28 06:27:30;;;;;;;2.53;0.80;;;;;;;15.17;97.34;100589.84;5117867;28;20466;-70
2023/08/28 06:29:58;;;;;;;2.73;1.03;;;;;;;15.25;97.37;100586.28;5117838;28;20494;-68
2023/08/28 06:32:25;;;;;;;2.50;1.00;;;;;;;15.30;97.35;100589.59;5117954;28;20464;-68
2023/08/28 06:34:52;;;;;;;2.00;0.60;;;;;;;15.41;98.39;100589.22;5117440;28;20518;-68
2023/08/28 06:37:18;;;;;;;2.53;0.90;;;;;;;15.50;97.91;100588.00;5117299;28;20495;-69
2023/08/28 06:39:45;;;;;;;2.60;0.73;;;;;;;15.59;96.45;100580.53;5117207;28;20530;-68
2023/08/28 06:42:11;;;;;;;2.10;0.73;;;;;;;15.67;95.62;100584.38;5117479;28;20481;-68
2023/08/28 06:44:38;;;;;;;2.80;0.80;;;;;;;15.70;95.78;100583.66;5117309;28;20534;-70
2023/08/28 06:47:06;;;;;;;2.47;1.00;;;;;;;15.77;95.41;100599.53;5117370;28;20543;-71
2023/08/28 06:49:33;;;;;;;3.13;1.07;;;;;;;15.85;94.51;100601.38;5117390;28;20515;-68
2023/08/28 06:52:00;;;;;;;3.43;1.20;;;;;;;15.89;94.28;100599.56;5117272;28;20487;-69
2023/08/28 06:54:26;;;;;;;2.30;0.70;;;;;;;16.03;95.93;100604.75;5117374;28;20872;-69
2023/08/28 06:56:53;;;;;;;2.80;0.93;;;;;;;16.25;94.07;100607.06;5116791;28;20979;-69
2023/08/28 06:59:20;;;;;;;3.33;1.67;;;;;;;16.45;90.95;100610.84;5117037;28;20492;-69
2023/08/28 07:01:46;;;;;;;2.47;0.97;;;;;;;16.49;89.64;100611.78;5116825;28;20483;-68
2023/08/28 07:04:14;;;;;;;2.63;1.00;;;;;;;16.51;90.14;100605.97;5116940;28;20522;-68
2023/08/28 07:06:41;;;;;;;2.67;1.10;;;;;;;16.46;91.06;100600.72;5117640;28;20538;-68
2023/08/28 07:09:07;;;;;;;2.77;1.10;;;;;;;16.49;91.53;100605.50;5116954;28;20530;-69
2023/08/28 07:11:34;;;;;;;2.70;1.07;;;;;;;16.40;90.47;100603.69;5116844;28;20437;-69
2023/08/28 07:14:02;;;;;;;3.13;1.53;;;;;;;16.42;90.37;100595.13;5116774;28;20440;-69
2023/08/28 07:16:29;;;;;;;2.30;0.80;;;;;;;16.44;91.40;100600.28;5116316;28;20554;-70
2023/08/28 07:18:55;;;;;;;2.67;1.00;;;;;;;16.49;91.13;100616.44;5116608;28;20463;-71
2023/08/28 07:21:24;;;;;;;2.03;0.70;;;;;;;16.49;90.15;100621.91;5116244;28;21011;-72
2023/08/28 07:23:51;;;;;;;2.30;0.83;;;;;;;16.53;91.84;100625.56;5116742;28;20527;-73
2023/08/28 07:26:18;;;;;;;2.73;0.80;;;;;;;16.60;90.20;100623.88;5116568;28;20462;-73
2023/08/28 07:28:46;;;;;;;9.43;1.20;;;;;;;16.73;90.24;100626.63;5116555;28;20492;-71
2023/08/28 07:31:12;;;;;;;2.53;0.97;;;;;;;16.79;89.66;100625.28;5115461;28;20472;-69
2023/08/28 07:33:39;;;;;;;2.10;0.70;;;;;;;16.84;88.89;100623.09;5117089;28;20511;-70
2023/08/28 07:36:06;;;;;;;2.83;1.03;;;;;;;16.84;89.04;100627.78;5116235;28;20455;-71
2023/08/28 07:38:34;;;;;;;2.20;0.70;;;;;;;16.96;88.52;100624.25;5116412;28;20436;-70
2023/08/28 07:41:01;;;;;;;2.10;0.67;;;;;;;17.07;88.83;100636.31;5116075;28;20560;-71
2023/08/28 07:43:28;;;;;;;3.60;0.83;;;;;;;17.17;87.53;100643.25;5116276;28;20527;-70
2023/08/28 07:45:55;;;;;;;2.80;1.03;;;;;;;17.22;86.90;100635.63;5115958;28;20543;-70
2023/08/28 07:48:23;;;;;;;2.63;1.00;;;;;;;17.22;85.93;100638.38;5115762;28;20443;-70
2023/08/28 07:50:50;;;;;;;5.10;0.93;;;;;;;17.25;86.43;100637.66;5115772;28;20875;-70
2023/08/28 07:53:16;;;;;;;2.70;0.87;;;;;;;17.22;85.75;100634.81;5116152;28;20440;-70
2023/08/28 07:55:44;;;;;;;2.30;0.60;;;;;;;17.17;86.89;100635.06;5115556;28;20462;-69
2023/08/28 07:58:11;;;;;;;2.97;1.03;;;;;;;17.11;87.10;100635.28;5115899;28;20439;-71
2023/08/28 08:00:40;;;;;;;3.53;1.33;;;;;;;17.04;85.80;100631.53;5115857;28;20470;-70
2023/08/28 08:03:06;;;;;;;2.70;0.90;;;;;;;17.00;87.00;100625.13;5115537;28;20446;-70
2023/08/28 08:05:33;;;;;;;2.27;0.87;;;;;;;17.10;87.20;100630.16;5115529;28;20462;-68
2023/08/28 08:08:00;;;;;;;3.07;1.43;;;;;;;17.20;87.42;100626.94;5115822;28;20488;-68
2023/08/28 08:10:27;;;;;;;2.17;0.70;;;;;;;17.30;85.76;100623.72;5115660;28;20526;-68
2023/08/28 08:12:55;;;;;;;2.37;0.80;;;;;;;17.43;85.20;100620.97;5115839;28;20473;-68
2023/08/28 08:17:50;;;;;;;2.40;0.83;;;;;;;17.55;85.66;100629.16;5136486;27;20782;-70
2023/08/28 08:20:17;;;;;;;2.00;0.60;;;;;;;17.56;83.82;100622.53;5137679;27;20513;-67
2023/08/28 08:22:44;;;;;;;4.57;1.00;;;;;;;17.62;84.68;100623.91;5135658;27;20484;-67
2023/08/28 08:25:10;;;;;;;2.27;0.80;;;;;;;17.64;83.55;100613.38;5135276;27;20818;-69
2023/08/28 08:27:38;;;;;;;2.23;0.70;;;;;;;17.79;84.60;100604.44;5135317;27;20447;-69
2023/08/28 08:30:08;;;;;;;2.30;0.80;;;;;;;17.96;86.80;100611.56;5135184;27;20800;-66
2023/08/28 08:32:35;;;;;;;2.63;0.80;;;;;;;18.13;83.92;100602.22;5135507;27;20518;-67
2023/08/28 08:35:05;;;;;;;2.17;0.83;;;;;;;18.37;82.52;100613.06;5135343;27;20461;-67
2023/08/28 08:37:32;;;;;;;2.97;0.90;;;;;;;18.39;79.26;100613.47;5135414;27;20438;-67
2023/08/28 08:39:58;;;;;;;2.30;0.90;;;;;;;18.43;80.59;100610.03;5135024;27;20941;-67
2023/08/28 08:42:25;;;;;;;2.40;0.70;;;;;;;18.34;79.01;100597.28;5134226;27;20482;-67
2023/08/28 08:44:51;;;;;;;3.67;0.80;;;;;;;18.43;79.97;100612.78;5135193;27;20452;-67
2023/08/28 08:47:20;;;;;;;3.13;0.97;;;;;;;18.64;80.04;100603.13;5135272;27;20541;-67
2023/08/28 08:49:53;;;;;;;2.50;0.77;;;;;;;18.77;80.24;100605.78;5134818;27;20874;-67
2023/08/28 08:52:23;;;;;;;2.00;0.53;;;;;;;18.79;77.66;100609.00;5135051;27;20454;-68
2023/08/28 08:54:55;;;;;;;3.43;0.87;;;;;;;18.66;78.23;100608.25;5134962;27;20445;-67
2023/08/28 08:57:29;;;;;;;2.50;0.70;;;;;;;18.63;78.12;100607.00;5135119;27;20419;-67
2023/08/28 08:59:56;;;;;;;2.30;0.60;;;;;;;18.56;77.90;100612.34;5134993;27;20446;-67
2023/08/28 09:02:25;;;;;;;2.40;0.80;;;;;;;18.62;78.42;100604.63;5134571;27;20856;-67
2023/08/28 09:04:52;;;;;;;2.20;0.70;;;;;;;18.76;79.11;100609.69;5134744;27;20858;-67
2023/08/28 09:07:20;;;;;;;3.00;0.90;;;;;;;18.90;79.53;100593.56;5134897;27;20525;-67
2023/08/28 09:09:47;;;;;;;2.10;0.70;;;;;;;18.88;75.44;100602.16;5134560;27;20918;-67
2023/08/28 09:12:16;;;;;;;2.17;0.63;;;;;;;18.89;75.78;100605.69;5134804;27;20462;-67
2023/08/28 09:14:42;;;;;;;2.40;0.60;;;;;;;18.88;75.05;100615.09;5134854;27;20473;-67
2023/08/28 09:17:09;;;;;;;2.00;0.60;;;;;;;18.93;76.24;100608.53;5134381;27;20535;-67
2023/08/28 09:19:37;;;;;;;2.40;0.70;;;;;;;18.97;75.37;100621.19;5134735;27;20435;-67
2023/08/28 09:22:04;;;;;;;2.63;0.90;;;;;;;19.00;75.57;100619.69;5134571;27;20488;-67
2023/08/28 09:24:31;;;;;;;2.00;0.50;;;;;;;19.14;75.73;100618.06;5134626;27;20457;-67
2023/08/28 09:26:58;;;;;;;1.90;0.40;;;;;;;19.26;77.43;100630.09;5134480;27;20468;-69
2023/08/28 09:29:25;;;;;;;1.90;0.50;;;;;;;19.28;73.01;100623.06;5134543;27;20446;-70
2023/08/28 09:31:52;;;;;;;2.00;0.50;;;;;;;19.21;75.37;100630.34;5134447;27;20437;-70
2023/08/28 09:34:21;;;;;;;2.03;0.60;;;;;;;19.22;75.38;100643.72;5134256;28;20427;-70
2023/08/28 09:36:49;;;;;;;1.90;0.50;;;;;;;19.27;73.77;100645.41;5134495;28;20450;-70
2023/08/28 09:39:15;;;;;;;1.90;0.50;;;;;;;19.19;73.93;100641.69;5134368;28;20525;-70
2023/08/28 09:41:44;;;;;;;1.90;0.50;;;;;;;19.20;74.46;100639.75;5134466;28;20573;-70
2023/08/28 09:44:11;;;;;;;2.00;0.50;;;;;;;19.13;75.41;100643.13;5134428;28;20533;-70
2023/08/28 09:46:38;;;;;;;2.10;0.63;;;;;;;19.16;74.76;100645.94;5134266;28;20562;-70
2023/08/28 09:49:05;;;;;;;2.17;0.57;;;;;;;19.23;74.03;100650.81;5134096;28;20521;-70
2023/08/28 09:51:42;;;;;;;2.10;0.60;;;;;;;19.24;75.23;100649.66;5134374;28;20435;-70
2023/08/28 09:54:12;;;;;;;2.20;0.67;;;;;;;19.27;75.77;100648.94;5137003;27;20527;-69
2023/08/28 09:56:39;;;;;;;2.63;0.80;;;;;;;19.41;74.90;100653.94;5138498;27;20537;-70
2023/08/28 09:59:06;;;;;;;2.37;0.70;;;;;;;19.54;72.85;100638.94;5138186;27;20438;-70
2023/08/28 10:01:34;;;;;;;1.90;0.50;;;;;;;19.53;73.14;100639.28;5138361;27;20576;-70
2023/08/28 10:04:04;;;;;;;2.10;0.60;;;;;;;19.56;73.07;100641.31;5138401;27;20506;-69
2023/08/28 10:06:34;;;;;;;2.00;0.57;;;;;;;19.50;73.40;100631.75;5138298;27;20541;-69
2023/08/28 10:09:04;;;;;;;2.27;0.70;;;;;;;19.64;75.20;100637.59;5138311;27;20430;-69
2023/08/28 10:11:37;;;;;;;1.93;0.50;;;;;;;19.77;74.49;100644.53;5138538;27;20775;-69
2023/08/28 10:14:05;;;;;;;4.07;0.80;;;;;;;19.78;72.71;100645.31;5138037;27;20454;-69
2023/08/28 10:16:37;;;;;;;1.90;0.60;;;;;;;19.81;73.68;100626.16;5137713;27;20473;-70
2023/08/28 10:19:10;;;;;;;2.27;0.57;;;;;;;19.72;72.19;100631.09;5138160;27;20419;-70
2023/08/28 10:21:39;;;;;;;2.23;0.50;;;;;;;19.80;70.73;100629.28;5137687;27;20995;-70
2023/08/28 10:24:06;;;;;;;2.20;0.70;;;;;;;19.69;70.29;100628.25;5137999;27;20434;-70
2023/08/28 10:26:35;;;;;;;2.00;0.50;;;;;;;19.77;70.41;100639.03;5137963;27;20469;-69
2023/08/28 10:29:03;;;;;;;1.83;0.50;;;;;;;19.81;71.16;100628.91;5137847;27;20512;-70
2023/08/28 10:31:31;;;;;;;2.30;0.53;;;;;;;19.86;70.30;100623.09;5137498;27;20509;-69
2023/08/28 10:33:57;;;;;;;2.10;0.60;;;;;;;19.89;70.05;100622.41;5137729;27;20448;-68
2023/08/28 10:36:25;;;;;;;1.93;0.50;;;;;;;20.04;71.67;100619.91;5137691;27;20450;-68
2023/08/28 10:38:53;;;;;;;2.00;0.60;;;;;;;20.08;71.50;100626.28;5137736;27;20442;-68
2023/08/28 10:41:21;;;;;;;1.90;0.40;;;;;;;20.33;71.34;100624.00;5137827;27;20435;-68
2023/08/28 10:43:50;;;;;;;2.63;0.67;;;;;;;20.49;68.69;100637.63;5137319;27;20803;-69
2023/08/28 10:46:19;;;;;;;1.90;0.40;;;;;;;20.41;67.88;100634.75;5137546;27;20497;-69
2023/08/28 10:48:46;;;;;;;2.00;0.50;;;;;;;20.46;68.68;100627.34;5137516;27;20435;-69
2023/08/28 10:51:13;;;;;;;2.20;0.50;;;;;;;20.64;70.13;100612.75;5137505;27;20559;-69
2023/08/28 10:53:40;;;;;;;4.83;0.83;;;;;;;20.80;67.33;100615.34;5137106;27;20518;-69
2023/08/28 10:56:07;;;;;;;1.90;0.50;;;;;;;20.78;68.14;100622.41;5137329;27;20553;-68
2023/08/28 10:58:38;;;;;;;2.10;0.60;;;;;;;20.86;65.06;100618.59;5137408;27;20521;-69
2023/08/28 11:01:14;;;;;;;2.73;0.80;;;;;;;20.96;65.09;100617.97;5137369;27;20506;-69
2023/08/28 11:03:57;;;;;;;2.60;0.70;;;;;;;20.94;65.34;100602.97;5137152;27;20465;-69
2023/08/28 11:06:39;;;;;;;2.10;0.60;;;;;;;20.64;65.71;100610.00;5135898;27;20869;-69
2023/08/28 11:09:34;;;;;;;2.00;0.60;;;;;;;20.44;67.49;100604.91;5137196;27;20522;-70
2023/08/28 11:12:29;;;;;;;1.90;0.40;;;;;;;20.40;67.33;100616.63;5137147;27;20488;-71
2023/08/28 11:14:59;;;;;;;2.10;0.70;;;;;;;20.40;67.06;100613.88;5136955;27;20445;-70
2023/08/28 11:17:30;;;;;;;1.90;0.40;;;;;;;20.32;66.61;100612.19;5136802;27;20975;-72
2023/08/28 11:20:05;;;;;;;2.30;0.70;;;;;;;20.20;68.83;100620.63;5137201;27;20433;-68
2023/08/28 11:22:32;;;;;;;1.80;0.40;;;;;;;20.25;66.93;100612.06;5136818;27;20510;-68
2023/08/28 11:25:00;;;;;;;1.90;0.40;;;;;;;20.44;68.46;100618.66;5136683;27;20431;-71
2023/08/28 11:27:35;;;;;;;1.80;0.40;;;;;;;20.73;68.29;100609.75;5136737;27;20474;-69